sensor_id;sensor_type;location;lat;lon;timestamp;temperature;humidity
40636;DHT22;26642;55.766;37.828;2023-04-24T00:00:56;19.50;48.20
40636;DHT22;26642;55.766;37.828;2023-04-24T00:03:23;19.50;48.20
40636;DHT22;26642;55.766;37.828;2023-04-24T00:05:49;19.50;48.20
40636;DHT22;26642;55.766;37.828;2023-04-24T00:08:17;19.50;48.20
40636;DHT22;26642;55.766;37.828;2023-04-24T00:10:43;19.50;48.10
40636;DHT22;26642;55.766;37.828;2023-04-24T00:13:09;19.40;47.90
40636;DHT22;26642;55.766;37.828;2023-04-24T00:15:35;19.40;48.00
40636;DHT22;26642;55.766;37.828;2023-04-24T00:18:01;19.40;48.00
40636;DHT22;26642;55.766;37.828;2023-04-24T00:20:28;19.40;48.00
40636;DHT22;26642;55.766;37.828;2023-04-24T00:22:55;19.40;48.20
40636;DHT22;26642;55.766;37.828;2023-04-24T00:25:21;19.40;48.20
40636;DHT22;26642;55.766;37.828;2023-04-24T00:27:47;19.40;48.20
40636;DHT22;26642;55.766;37.828;2023-04-24T00:30:13;19.40;48.20
40636;DHT22;26642;55.766;37.828;2023-04-24T00:32:39;19.40;48.40
40636;DHT22;26642;55.766;37.828;2023-04-24T00:35:06;19.40;48.30
40636;DHT22;26642;55.766;37.828;2023-04-24T00:37:32;19.40;48.40
40636;DHT22;26642;55.766;37.828;2023-04-24T00:39:58;19.30;48.30
40636;DHT22;26642;55.766;37.828;2023-04-24T00:42:24;19.40;48.40
40636;DHT22;26642;55.766;37.828;2023-04-24T00:44:50;19.30;48.30
40636;DHT22;26642;55.766;37.828;2023-04-24T00:47:17;19.30;48.20
40636;DHT22;26642;55.766;37.828;2023-04-24T00:49:44;19.30;48.30
40636;DHT22;26642;55.766;37.828;2023-04-24T00:52:10;19.30;48.20
40636;DHT22;26642;55.766;37.828;2023-04-24T00:54:36;19.30;48.20
40636;DHT22;26642;55.766;37.828;2023-04-24T00:57:03;19.30;48.20
40636;DHT22;26642;55.766;37.828;2023-04-24T00:59:29;19.30;48.20
40636;DHT22;26642;55.766;37.828;2023-04-24T01:01:56;19.30;48.20
40636;DHT22;26642;55.766;37.828;2023-04-24T01:04:23;19.30;48.20
40636;DHT22;26642;55.766;37.828;2023-04-24T01:06:50;19.30;48.30
40636;DHT22;26642;55.766;37.828;2023-04-24T01:09:16;19.30;48.20
40636;DHT22;26642;55.766;37.828;2023-04-24T01:11:43;19.20;48.20
40636;DHT22;26642;55.766;37.828;2023-04-24T01:14:11;19.30;48.30
40636;DHT22;26642;55.766;37.828;2023-04-24T01:16:37;19.20;48.20
40636;DHT22;26642;55.766;37.828;2023-04-24T01:19:05;19.20;48.20
40636;DHT22;26642;55.766;37.828;2023-04-24T01:21:36;19.20;48.30
40636;DHT22;26642;55.766;37.828;2023-04-24T01:24:04;19.20;48.30
40636;DHT22;26642;55.766;37.828;2023-04-24T01:26:30;19.20;48.30
40636;DHT22;26642;55.766;37.828;2023-04-24T01:28:56;19.20;48.30
40636;DHT22;26642;55.766;37.828;2023-04-24T01:31:23;19.20;48.50
40636;DHT22;26642;55.766;37.828;2023-04-24T01:33:50;19.10;48.30
40636;DHT22;26642;55.766;37.828;2023-04-24T01:36:16;19.10;48.30
40636;DHT22;26642;55.766;37.828;2023-04-24T01:38:43;19.10;48.20
40636;DHT22;26642;55.766;37.828;2023-04-24T01:41:10;19.10;48.20
40636;DHT22;26642;55.766;37.828;2023-04-24T01:43:36;19.10;48.40
40636;DHT22;26642;55.766;37.828;2023-04-24T01:46:02;19.10;48.20
40636;DHT22;26642;55.766;37.828;2023-04-24T01:48:29;19.10;48.20
40636;DHT22;26642;55.766;37.828;2023-04-24T01:50:59;19.10;48.20
40636;DHT22;26642;55.766;37.828;2023-04-24T01:53:25;19.10;48.40
40636;DHT22;26642;55.766;37.828;2023-04-24T01:55:51;19.10;48.40
40636;DHT22;26642;55.766;37.828;2023-04-24T01:58:17;19.00;48.30
40636;DHT22;26642;55.766;37.828;2023-04-24T02:00:43;19.00;48.30
40636;DHT22;26642;55.766;37.828;2023-04-24T02:03:10;19.00;48.30
40636;DHT22;26642;55.766;37.828;2023-04-24T02:05:35;19.00;48.20
40636;DHT22;26642;55.766;37.828;2023-04-24T02:08:02;19.00;48.30
40636;DHT22;26642;55.766;37.828;2023-04-24T02:10:28;19.00;48.30
40636;DHT22;26642;55.766;37.828;2023-04-24T02:12:54;19.00;48.30
40636;DHT22;26642;55.766;37.828;2023-04-24T02:15:23;18.90;48.20
40636;DHT22;26642;55.766;37.828;2023-04-24T02:17:49;18.90;48.20
40636;DHT22;26642;55.766;37.828;2023-04-24T02:20:15;18.90;48.20
40636;DHT22;26642;55.766;37.828;2023-04-24T02:22:43;18.90;48.30
40636;DHT22;26642;55.766;37.828;2023-04-24T02:25:09;18.90;48.30
40636;DHT22;26642;55.766;37.828;2023-04-24T02:27:35;18.90;48.20
40636;DHT22;26642;55.766;37.828;2023-04-24T02:30:05;18.90;48.20
40636;DHT22;26642;55.766;37.828;2023-04-24T02:32:32;18.90;48.20
40636;DHT22;26642;55.766;37.828;2023-04-24T02:34:59;18.90;48.20
40636;DHT22;26642;55.766;37.828;2023-04-24T02:37:25;18.90;48.30
40636;DHT22;26642;55.766;37.828;2023-04-24T02:39:51;18.90;48.20
40636;DHT22;26642;55.766;37.828;2023-04-24T02:42:17;18.90;48.20
40636;DHT22;26642;55.766;37.828;2023-04-24T02:44:43;18.90;48.10
40636;DHT22;26642;55.766;37.828;2023-04-24T02:47:09;18.90;48.10
40636;DHT22;26642;55.766;37.828;2023-04-24T02:49:35;18.90;48.10
40636;DHT22;26642;55.766;37.828;2023-04-24T02:52:04;18.90;48.20
40636;DHT22;26642;55.766;37.828;2023-04-24T02:54:30;18.90;48.10
40636;DHT22;26642;55.766;37.828;2023-04-24T02:56:56;18.90;47.90
40636;DHT22;26642;55.766;37.828;2023-04-24T02:59:22;18.90;47.90
40636;DHT22;26642;55.766;37.828;2023-04-24T03:01:48;18.90;48.00
40636;DHT22;26642;55.766;37.828;2023-04-24T03:04:14;18.90;47.90
40636;DHT22;26642;55.766;37.828;2023-04-24T03:06:41;18.90;47.80
40636;DHT22;26642;55.766;37.828;2023-04-24T03:09:07;18.90;47.70
40636;DHT22;26642;55.766;37.828;2023-04-24T03:11:33;18.90;47.80
40636;DHT22;26642;55.766;37.828;2023-04-24T03:14:00;18.90;47.80
40636;DHT22;26642;55.766;37.828;2023-04-24T03:16:25;18.90;47.80
40636;DHT22;26642;55.766;37.828;2023-04-24T03:18:54;18.90;47.80
40636;DHT22;26642;55.766;37.828;2023-04-24T03:21:22;18.90;47.70
40636;DHT22;26642;55.766;37.828;2023-04-24T03:23:48;18.90;47.80
40636;DHT22;26642;55.766;37.828;2023-04-24T03:26:14;18.90;47.80
40636;DHT22;26642;55.766;37.828;2023-04-24T03:28:52;18.90;47.70
40636;DHT22;26642;55.766;37.828;2023-04-24T03:31:18;18.90;47.60
40636;DHT22;26642;55.766;37.828;2023-04-24T03:33:47;18.90;47.60
40636;DHT22;26642;55.766;37.828;2023-04-24T03:36:13;18.90;47.50
40636;DHT22;26642;55.766;37.828;2023-04-24T03:38:40;18.90;47.50
40636;DHT22;26642;55.766;37.828;2023-04-24T03:41:19;18.90;47.50
40636;DHT22;26642;55.766;37.828;2023-04-24T03:43:50;19.00;47.60
40636;DHT22;26642;55.766;37.828;2023-04-24T03:46:16;19.00;47.60
40636;DHT22;26642;55.766;37.828;2023-04-24T03:48:52;18.90;47.60
40636;DHT22;26642;55.766;37.828;2023-04-24T03:51:22;19.00;47.50
40636;DHT22;26642;55.766;37.828;2023-04-24T03:53:51;19.00;47.50
40636;DHT22;26642;55.766;37.828;2023-04-24T03:56:20;19.00;47.50
40636;DHT22;26642;55.766;37.828;2023-04-24T03:58:46;19.00;47.60
40636;DHT22;26642;55.766;37.828;2023-04-24T04:01:12;19.00;47.50
40636;DHT22;26642;55.766;37.828;2023-04-24T04:04:02;19.10;47.70
40636;DHT22;26642;55.766;37.828;2023-04-24T04:06:29;19.10;47.50
40636;DHT22;26642;55.766;37.828;2023-04-24T04:08:59;19.10;47.60
40636;DHT22;26642;55.766;37.828;2023-04-24T04:11:25;19.10;47.60
40636;DHT22;26642;55.766;37.828;2023-04-24T04:13:51;19.10;47.40
40636;DHT22;26642;55.766;37.828;2023-04-24T04:16:20;19.10;47.40
40636;DHT22;26642;55.766;37.828;2023-04-24T04:18:48;19.10;47.30
40636;DHT22;26642;55.766;37.828;2023-04-24T04:21:15;19.20;47.30
40636;DHT22;26642;55.766;37.828;2023-04-24T04:23:41;19.20;47.50
40636;DHT22;26642;55.766;37.828;2023-04-24T04:26:17;19.30;47.50
40636;DHT22;26642;55.766;37.828;2023-04-24T04:29:20;19.40;47.40
40636;DHT22;26642;55.766;37.828;2023-04-24T04:31:49;19.60;47.20
40636;DHT22;26642;55.766;37.828;2023-04-24T04:34:15;19.70;47.00
40636;DHT22;26642;55.766;37.828;2023-04-24T04:36:41;19.90;46.90
40636;DHT22;26642;55.766;37.828;2023-04-24T04:39:38;20.10;46.90
40636;DHT22;26642;55.766;37.828;2023-04-24T04:42:08;20.30;46.70
40636;DHT22;26642;55.766;37.828;2023-04-24T04:44:39;20.40;46.60
40636;DHT22;26642;55.766;37.828;2023-04-24T04:47:07;20.60;46.40
40636;DHT22;26642;55.766;37.828;2023-04-24T04:49:40;20.80;46.20
40636;DHT22;26642;55.766;37.828;2023-04-24T04:52:14;20.90;46.10
40636;DHT22;26642;55.766;37.828;2023-04-24T04:54:43;21.00;46.00
40636;DHT22;26642;55.766;37.828;2023-04-24T04:57:10;21.10;45.90
40636;DHT22;26642;55.766;37.828;2023-04-24T04:59:38;21.30;45.80
40636;DHT22;26642;55.766;37.828;2023-04-24T05:02:09;21.40;45.70
40636;DHT22;26642;55.766;37.828;2023-04-24T05:04:36;21.50;45.20
40636;DHT22;26642;55.766;37.828;2023-04-24T05:07:02;21.60;45.00
40636;DHT22;26642;55.766;37.828;2023-04-24T05:09:31;21.80;45.30
40636;DHT22;26642;55.766;37.828;2023-04-24T05:12:02;21.90;44.70
40636;DHT22;26642;55.766;37.828;2023-04-24T05:14:31;22.00;44.30
40636;DHT22;26642;55.766;37.828;2023-04-24T05:16:58;22.10;44.70
40636;DHT22;26642;55.766;37.828;2023-04-24T05:19:25;22.20;44.30
40636;DHT22;26642;55.766;37.828;2023-04-24T05:21:51;22.40;44.00
40636;DHT22;26642;55.766;37.828;2023-04-24T05:24:17;22.50;43.20
40636;DHT22;26642;55.766;37.828;2023-04-24T05:27:02;22.60;43.10
40636;DHT22;26642;55.766;37.828;2023-04-24T05:29:35;22.70;43.00
40636;DHT22;26642;55.766;37.828;2023-04-24T05:32:03;22.90;42.70
40636;DHT22;26642;55.766;37.828;2023-04-24T05:34:30;23.00;41.80
40636;DHT22;26642;55.766;37.828;2023-04-24T05:36:56;23.10;41.30
40636;DHT22;26642;55.766;37.828;2023-04-24T05:39:22;23.30;41.60
40636;DHT22;26642;55.766;37.828;2023-04-24T05:41:51;23.40;41.20
40636;DHT22;26642;55.766;37.828;2023-04-24T05:44:17;23.50;40.70
40636;DHT22;26642;55.766;37.828;2023-04-24T05:46:43;23.60;40.40
40636;DHT22;26642;55.766;37.828;2023-04-24T05:49:10;23.70;40.10
40636;DHT22;26642;55.766;37.828;2023-04-24T05:51:37;23.80;40.10
40636;DHT22;26642;55.766;37.828;2023-04-24T05:54:03;23.90;38.10
40636;DHT22;26642;55.766;37.828;2023-04-24T05:56:30;23.70;37.10
40636;DHT22;26642;55.766;37.828;2023-04-24T05:58:58;23.80;37.60
40636;DHT22;26642;55.766;37.828;2023-04-24T06:01:24;23.90;37.70
40636;DHT22;26642;55.766;37.828;2023-04-24T06:03:58;24.00;37.80
40636;DHT22;26642;55.766;37.828;2023-04-24T06:06:25;24.10;36.60
40636;DHT22;26642;55.766;37.828;2023-04-24T06:08:52;24.20;37.40
40636;DHT22;26642;55.766;37.828;2023-04-24T06:11:19;24.30;36.80
40636;DHT22;26642;55.766;37.828;2023-04-24T06:13:45;24.40;36.60
40636;DHT22;26642;55.766;37.828;2023-04-24T06:16:34;24.40;36.70
40636;DHT22;26642;55.766;37.828;2023-04-24T06:19:07;24.60;36.60
40636;DHT22;26642;55.766;37.828;2023-04-24T06:21:34;24.60;35.80
40636;DHT22;26642;55.766;37.828;2023-04-24T06:24:00;24.70;35.90
40636;DHT22;26642;55.766;37.828;2023-04-24T06:26:26;24.70;35.80
40636;DHT22;26642;55.766;37.828;2023-04-24T06:28:53;24.80;35.00
40636;DHT22;26642;55.766;37.828;2023-04-24T06:31:24;24.80;35.10
40636;DHT22;26642;55.766;37.828;2023-04-24T06:33:50;24.90;35.40
40636;DHT22;26642;55.766;37.828;2023-04-24T06:36:16;24.90;34.70
40636;DHT22;26642;55.766;37.828;2023-04-24T06:38:42;24.90;35.10
40636;DHT22;26642;55.766;37.828;2023-04-24T06:41:10;25.00;34.90
40636;DHT22;26642;55.766;37.828;2023-04-24T06:43:36;25.00;34.70
40636;DHT22;26642;55.766;37.828;2023-04-24T06:46:01;25.00;35.00
40636;DHT22;26642;55.766;37.828;2023-04-24T06:48:29;25.00;34.90
40636;DHT22;26642;55.766;37.828;2023-04-24T06:50:55;25.10;34.60
40636;DHT22;26642;55.766;37.828;2023-04-24T06:53:21;25.00;34.30
40636;DHT22;26642;55.766;37.828;2023-04-24T06:55:47;25.00;34.30
40636;DHT22;26642;55.766;37.828;2023-04-24T06:58:13;25.00;34.40
40636;DHT22;26642;55.766;37.828;2023-04-24T07:00:39;25.10;34.20
40636;DHT22;26642;55.766;37.828;2023-04-24T07:03:06;25.10;33.70
40636;DHT22;26642;55.766;37.828;2023-04-24T07:05:31;25.10;33.90
40636;DHT22;26642;55.766;37.828;2023-04-24T07:07:59;25.10;34.30
40636;DHT22;26642;55.766;37.828;2023-04-24T07:10:26;25.10;33.60
40636;DHT22;26642;55.766;37.828;2023-04-24T07:12:55;25.20;33.60
40636;DHT22;26642;55.766;37.828;2023-04-24T07:15:22;25.20;33.60
40636;DHT22;26642;55.766;37.828;2023-04-24T07:17:49;25.20;33.20
40636;DHT22;26642;55.766;37.828;2023-04-24T07:20:15;25.20;33.20
40636;DHT22;26642;55.766;37.828;2023-04-24T07:22:41;25.20;33.40
40636;DHT22;26642;55.766;37.828;2023-04-24T07:25:08;25.30;33.40
40636;DHT22;26642;55.766;37.828;2023-04-24T07:27:34;25.30;33.60
40636;DHT22;26642;55.766;37.828;2023-04-24T07:30:02;25.30;33.30
40636;DHT22;26642;55.766;37.828;2023-04-24T07:32:29;25.30;32.70
40636;DHT22;26642;55.766;37.828;2023-04-24T07:34:55;25.30;32.60
40636;DHT22;26642;55.766;37.828;2023-04-24T07:37:22;25.30;32.30
40636;DHT22;26642;55.766;37.828;2023-04-24T07:39:48;25.30;32.50
40636;DHT22;26642;55.766;37.828;2023-04-24T07:42:14;25.30;32.40
40636;DHT22;26642;55.766;37.828;2023-04-24T07:44:40;25.20;32.20
40636;DHT22;26642;55.766;37.828;2023-04-24T07:47:06;25.20;31.80
40636;DHT22;26642;55.766;37.828;2023-04-24T07:49:32;25.20;32.20
40636;DHT22;26642;55.766;37.828;2023-04-24T07:52:00;25.20;31.60
40636;DHT22;26642;55.766;37.828;2023-04-24T07:54:28;25.20;31.50
40636;DHT22;26642;55.766;37.828;2023-04-24T07:56:54;25.10;31.80
40636;DHT22;26642;55.766;37.828;2023-04-24T07:59:20;25.00;31.40
40636;DHT22;26642;55.766;37.828;2023-04-24T08:01:46;25.00;32.80
40636;DHT22;26642;55.766;37.828;2023-04-24T08:04:12;25.00;32.00
40636;DHT22;26642;55.766;37.828;2023-04-24T08:06:38;25.00;32.10
40636;DHT22;26642;55.766;37.828;2023-04-24T08:09:04;25.00;31.30
40636;DHT22;26642;55.766;37.828;2023-04-24T08:11:30;25.00;31.70
40636;DHT22;26642;55.766;37.828;2023-04-24T08:13:56;24.90;31.50
40636;DHT22;26642;55.766;37.828;2023-04-24T08:16:22;24.90;31.80
40636;DHT22;26642;55.766;37.828;2023-04-24T08:18:50;24.90;31.80
40636;DHT22;26642;55.766;37.828;2023-04-24T08:21:16;24.90;32.10
40636;DHT22;26642;55.766;37.828;2023-04-24T08:23:44;24.90;32.10
40636;DHT22;26642;55.766;37.828;2023-04-24T08:26:11;24.90;31.90
40636;DHT22;26642;55.766;37.828;2023-04-24T08:28:37;24.90;32.50
40636;DHT22;26642;55.766;37.828;2023-04-24T08:31:03;25.00;32.40
40636;DHT22;26642;55.766;37.828;2023-04-24T08:33:29;25.00;32.10
40636;DHT22;26642;55.766;37.828;2023-04-24T08:36:03;25.00;32.60
40636;DHT22;26642;55.766;37.828;2023-04-24T08:38:31;25.00;32.70
40636;DHT22;26642;55.766;37.828;2023-04-24T08:40:59;25.00;32.00
40636;DHT22;26642;55.766;37.828;2023-04-24T08:43:26;24.90;31.80
40636;DHT22;26642;55.766;37.828;2023-04-24T08:45:53;24.80;31.90
40636;DHT22;26642;55.766;37.828;2023-04-24T08:48:22;24.80;32.00
40636;DHT22;26642;55.766;37.828;2023-04-24T08:50:50;24.80;32.10
40636;DHT22;26642;55.766;37.828;2023-04-24T08:53:17;24.80;32.60
40636;DHT22;26642;55.766;37.828;2023-04-24T08:55:43;24.80;32.30
40636;DHT22;26642;55.766;37.828;2023-04-24T08:58:12;24.80;32.70
40636;DHT22;26642;55.766;37.828;2023-04-24T09:00:39;24.80;32.50
40636;DHT22;26642;55.766;37.828;2023-04-24T09:03:10;24.80;32.70
40636;DHT22;26642;55.766;37.828;2023-04-24T09:05:36;24.80;32.80
40636;DHT22;26642;55.766;37.828;2023-04-24T09:08:04;24.80;32.90
40636;DHT22;26642;55.766;37.828;2023-04-24T09:10:30;24.80;33.00
40636;DHT22;26642;55.766;37.828;2023-04-24T09:12:58;24.80;32.60
40636;DHT22;26642;55.766;37.828;2023-04-24T09:15:27;24.80;32.90
40636;DHT22;26642;55.766;37.828;2023-04-24T09:17:53;24.80;32.90
40636;DHT22;26642;55.766;37.828;2023-04-24T09:20:20;24.80;33.10
40636;DHT22;26642;55.766;37.828;2023-04-24T09:22:46;24.80;33.00
40636;DHT22;26642;55.766;37.828;2023-04-24T09:25:12;24.80;32.80
40636;DHT22;26642;55.766;37.828;2023-04-24T09:27:42;24.70;31.80
40636;DHT22;26642;55.766;37.828;2023-04-24T09:30:12;24.60;30.90
40636;DHT22;26642;55.766;37.828;2023-04-24T09:32:38;24.60;31.30
40636;DHT22;26642;55.766;37.828;2023-04-24T09:35:15;24.40;30.50
40636;DHT22;26642;55.766;37.828;2023-04-24T09:37:43;24.30;31.40
40636;DHT22;26642;55.766;37.828;2023-04-24T09:40:13;24.30;31.10
40636;DHT22;26642;55.766;37.828;2023-04-24T09:42:42;24.30;31.60
40636;DHT22;26642;55.766;37.828;2023-04-24T09:45:12;24.20;31.60
40636;DHT22;26642;55.766;37.828;2023-04-24T09:47:39;24.20;31.40
40636;DHT22;26642;55.766;37.828;2023-04-24T09:50:16;24.20;31.60
40636;DHT22;26642;55.766;37.828;2023-04-24T09:52:44;24.20;31.60
40636;DHT22;26642;55.766;37.828;2023-04-24T09:55:20;24.10;31.30
40636;DHT22;26642;55.766;37.828;2023-04-24T10:00:31;24.10;31.60
40636;DHT22;26642;55.766;37.828;2023-04-24T10:03:02;24.00;31.70
40636;DHT22;26642;55.766;37.828;2023-04-24T10:05:36;24.00;31.50
40636;DHT22;26642;55.766;37.828;2023-04-24T10:08:03;23.90;31.50
40636;DHT22;26642;55.766;37.828;2023-04-24T10:10:33;23.90;31.90
40636;DHT22;26642;55.766;37.828;2023-04-24T10:13:00;23.90;31.50
40636;DHT22;26642;55.766;37.828;2023-04-24T10:15:27;23.90;31.70
40636;DHT22;26642;55.766;37.828;2023-04-24T10:17:53;23.90;31.60
40636;DHT22;26642;55.766;37.828;2023-04-24T10:20:21;23.90;32.30
40636;DHT22;26642;55.766;37.828;2023-04-24T10:22:52;23.90;32.40
40636;DHT22;26642;55.766;37.828;2023-04-24T10:25:20;23.90;31.90
40636;DHT22;26642;55.766;37.828;2023-04-24T10:27:47;23.90;32.20
40636;DHT22;26642;55.766;37.828;2023-04-24T10:30:14;23.90;32.40
40636;DHT22;26642;55.766;37.828;2023-04-24T10:32:40;23.90;32.20
40636;DHT22;26642;55.766;37.828;2023-04-24T10:35:07;23.90;32.10
40636;DHT22;26642;55.766;37.828;2023-04-24T10:37:39;23.80;31.60
40636;DHT22;26642;55.766;37.828;2023-04-24T10:40:07;23.90;31.80
40636;DHT22;26642;55.766;37.828;2023-04-24T10:42:34;23.80;31.90
40636;DHT22;26642;55.766;37.828;2023-04-24T10:45:05;23.80;32.30
40636;DHT22;26642;55.766;37.828;2023-04-24T10:47:40;23.70;31.50
40636;DHT22;26642;55.766;37.828;2023-04-24T10:50:10;23.70;31.50
40636;DHT22;26642;55.766;37.828;2023-04-24T10:52:49;23.70;31.60
40636;DHT22;26642;55.766;37.828;2023-04-24T10:55:42;23.70;31.80
40636;DHT22;26642;55.766;37.828;2023-04-24T10:58:09;23.70;31.90
40636;DHT22;26642;55.766;37.828;2023-04-24T11:00:40;23.70;31.30
40636;DHT22;26642;55.766;37.828;2023-04-24T11:03:22;23.70;31.60
40636;DHT22;26642;55.766;37.828;2023-04-24T11:06:07;23.60;31.90
40636;DHT22;26642;55.766;37.828;2023-04-24T11:08:44;23.70;31.80
40636;DHT22;26642;55.766;37.828;2023-04-24T11:11:12;23.70;32.20
40636;DHT22;26642;55.766;37.828;2023-04-24T11:16:25;23.50;31.80
40636;DHT22;26642;55.766;37.828;2023-04-24T11:18:57;23.60;31.20
40636;DHT22;26642;55.766;37.828;2023-04-24T11:21:26;23.60;31.80
40636;DHT22;26642;55.766;37.828;2023-04-24T11:23:57;23.60;32.30
40636;DHT22;26642;55.766;37.828;2023-04-24T11:26:23;23.40;31.70
40636;DHT22;26642;55.766;37.828;2023-04-24T11:29:07;23.40;32.10
40636;DHT22;26642;55.766;37.828;2023-04-24T11:31:40;23.40;31.70
40636;DHT22;26642;55.766;37.828;2023-04-24T11:34:09;23.30;31.30
40636;DHT22;26642;55.766;37.828;2023-04-24T11:36:35;23.40;32.40
40636;DHT22;26642;55.766;37.828;2023-04-24T11:39:02;23.40;32.00
40636;DHT22;26642;55.766;37.828;2023-04-24T11:41:28;23.40;32.20
40636;DHT22;26642;55.766;37.828;2023-04-24T11:43:55;23.40;31.30
40636;DHT22;26642;55.766;37.828;2023-04-24T11:46:22;23.30;32.40
40636;DHT22;26642;55.766;37.828;2023-04-24T11:48:48;23.30;31.90
40636;DHT22;26642;55.766;37.828;2023-04-24T11:51:14;23.30;31.80
40636;DHT22;26642;55.766;37.828;2023-04-24T11:53:40;23.40;32.10
40636;DHT22;26642;55.766;37.828;2023-04-24T11:56:08;23.40;33.20
40636;DHT22;26642;55.766;37.828;2023-04-24T11:58:38;23.50;32.80
40636;DHT22;26642;55.766;37.828;2023-04-24T12:01:05;23.50;32.80
40636;DHT22;26642;55.766;37.828;2023-04-24T12:03:31;23.50;32.60
40636;DHT22;26642;55.766;37.828;2023-04-24T12:06:10;23.50;32.60
40636;DHT22;26642;55.766;37.828;2023-04-24T12:08:37;23.50;32.60
40636;DHT22;26642;55.766;37.828;2023-04-24T12:11:05;23.50;32.80
40636;DHT22;26642;55.766;37.828;2023-04-24T12:13:33;23.50;32.70
40636;DHT22;26642;55.766;37.828;2023-04-24T12:16:03;23.60;32.70
40636;DHT22;26642;55.766;37.828;2023-04-24T12:18:30;23.50;32.30
40636;DHT22;26642;55.766;37.828;2023-04-24T12:21:15;23.50;31.90
40636;DHT22;26642;55.766;37.828;2023-04-24T12:23:45;23.50;31.60
40636;DHT22;26642;55.766;37.828;2023-04-24T12:26:16;23.40;30.80
40636;DHT22;26642;55.766;37.828;2023-04-24T12:28:42;23.40;31.20
40636;DHT22;26642;55.766;37.828;2023-04-24T12:31:08;23.40;31.20
40636;DHT22;26642;55.766;37.828;2023-04-24T12:33:35;23.40;31.30
40636;DHT22;26642;55.766;37.828;2023-04-24T12:36:01;23.40;31.30
40636;DHT22;26642;55.766;37.828;2023-04-24T12:38:28;23.40;30.90
40636;DHT22;26642;55.766;37.828;2023-04-24T12:41:07;23.30;30.80
40636;DHT22;26642;55.766;37.828;2023-04-24T12:43:33;23.30;31.10
40636;DHT22;26642;55.766;37.828;2023-04-24T12:45:59;23.40;31.10
40636;DHT22;26642;55.766;37.828;2023-04-24T12:48:29;23.30;31.00
40636;DHT22;26642;55.766;37.828;2023-04-24T12:50:59;23.30;30.70
40636;DHT22;26642;55.766;37.828;2023-04-24T12:53:28;23.30;30.80
40636;DHT22;26642;55.766;37.828;2023-04-24T12:55:57;23.30;31.10
40636;DHT22;26642;55.766;37.828;2023-04-24T12:58:23;23.30;31.40
40636;DHT22;26642;55.766;37.828;2023-04-24T13:00:50;23.30;31.50
40636;DHT22;26642;55.766;37.828;2023-04-24T13:03:16;23.30;31.60
40636;DHT22;26642;55.766;37.828;2023-04-24T13:05:43;23.30;31.50
40636;DHT22;26642;55.766;37.828;2023-04-24T13:08:09;23.30;31.60
40636;DHT22;26642;55.766;37.828;2023-04-24T13:10:36;23.30;31.50
40636;DHT22;26642;55.766;37.828;2023-04-24T13:13:02;23.30;30.30
40636;DHT22;26642;55.766;37.828;2023-04-24T13:15:29;23.20;30.50
40636;DHT22;26642;55.766;37.828;2023-04-24T13:17:55;23.20;30.80
40636;DHT22;26642;55.766;37.828;2023-04-24T13:20:21;23.20;30.50
40636;DHT22;26642;55.766;37.828;2023-04-24T13:22:47;23.10;30.70
40636;DHT22;26642;55.766;37.828;2023-04-24T13:25:13;23.20;31.20
40636;DHT22;26642;55.766;37.828;2023-04-24T13:27:42;23.20;31.30
40636;DHT22;26642;55.766;37.828;2023-04-24T13:30:08;23.20;31.30
40636;DHT22;26642;55.766;37.828;2023-04-24T13:32:35;23.20;31.40
40636;DHT22;26642;55.766;37.828;2023-04-24T13:35:00;23.30;31.60
40636;DHT22;26642;55.766;37.828;2023-04-24T13:37:27;23.30;31.50
40636;DHT22;26642;55.766;37.828;2023-04-24T13:39:53;23.30;30.90
40636;DHT22;26642;55.766;37.828;2023-04-24T13:42:19;23.30;30.70
40636;DHT22;26642;55.766;37.828;2023-04-24T13:44:46;23.20;30.70
40636;DHT22;26642;55.766;37.828;2023-04-24T13:47:12;23.20;31.00
40636;DHT22;26642;55.766;37.828;2023-04-24T13:49:38;23.20;30.90
40636;DHT22;26642;55.766;37.828;2023-04-24T13:52:04;23.10;31.10
40636;DHT22;26642;55.766;37.828;2023-04-24T13:54:30;23.10;30.40
40636;DHT22;26642;55.766;37.828;2023-04-24T13:56:57;23.10;30.80
40636;DHT22;26642;55.766;37.828;2023-04-24T13:59:24;23.10;30.70
40636;DHT22;26642;55.766;37.828;2023-04-24T14:01:50;23.10;30.80
40636;DHT22;26642;55.766;37.828;2023-04-24T14:04:16;23.00;30.60
40636;DHT22;26642;55.766;37.828;2023-04-24T14:06:43;23.00;30.40
40636;DHT22;26642;55.766;37.828;2023-04-24T14:09:08;23.00;30.60
40636;DHT22;26642;55.766;37.828;2023-04-24T14:11:35;23.00;30.20
40636;DHT22;26642;55.766;37.828;2023-04-24T14:14:01;22.90;30.60
40636;DHT22;26642;55.766;37.828;2023-04-24T14:16:28;23.00;30.70
40636;DHT22;26642;55.766;37.828;2023-04-24T14:18:54;23.00;30.30
40636;DHT22;26642;55.766;37.828;2023-04-24T14:21:20;23.00;30.70
40636;DHT22;26642;55.766;37.828;2023-04-24T14:23:46;22.90;30.20
40636;DHT22;26642;55.766;37.828;2023-04-24T14:26:12;22.90;30.20
40636;DHT22;26642;55.766;37.828;2023-04-24T14:28:38;22.80;30.30
40636;DHT22;26642;55.766;37.828;2023-04-24T14:31:04;22.80;30.40
40636;DHT22;26642;55.766;37.828;2023-04-24T14:33:30;22.90;30.80
40636;DHT22;26642;55.766;37.828;2023-04-24T14:35:57;22.80;31.10
40636;DHT22;26642;55.766;37.828;2023-04-24T14:38:23;22.90;31.20
40636;DHT22;26642;55.766;37.828;2023-04-24T14:40:49;22.90;30.80
40636;DHT22;26642;55.766;37.828;2023-04-24T14:43:15;22.80;30.80
40636;DHT22;26642;55.766;37.828;2023-04-24T14:45:40;22.90;31.00
40636;DHT22;26642;55.766;37.828;2023-04-24T14:48:07;22.80;30.80
40636;DHT22;26642;55.766;37.828;2023-04-24T14:50:34;22.90;31.50
40636;DHT22;26642;55.766;37.828;2023-04-24T14:52:59;22.90;31.20
40636;DHT22;26642;55.766;37.828;2023-04-24T14:55:27;22.80;31.30
40636;DHT22;26642;55.766;37.828;2023-04-24T14:57:53;22.80;31.40
40636;DHT22;26642;55.766;37.828;2023-04-24T15:00:20;22.80;31.30
40636;DHT22;26642;55.766;37.828;2023-04-24T15:02:46;22.80;30.80
40636;DHT22;26642;55.766;37.828;2023-04-24T15:05:12;22.80;31.30
40636;DHT22;26642;55.766;37.828;2023-04-24T15:07:38;22.80;31.20
40636;DHT22;26642;55.766;37.828;2023-04-24T15:10:05;22.70;31.20
40636;DHT22;26642;55.766;37.828;2023-04-24T15:12:31;22.80;30.70
40636;DHT22;26642;55.766;37.828;2023-04-24T15:14:58;22.70;30.70
40636;DHT22;26642;55.766;37.828;2023-04-24T15:17:25;22.70;30.80
40636;DHT22;26642;55.766;37.828;2023-04-24T15:19:51;22.60;31.10
40636;DHT22;26642;55.766;37.828;2023-04-24T15:22:17;22.60;31.40
40636;DHT22;26642;55.766;37.828;2023-04-24T15:24:43;22.70;31.20